Es ist keine erhöhte Aufmerksamkeit aufgrund des Wetters notwendig.    Es gibt keine Warnungen.
Webcam Vorhersage DWD Regenradar Wetterlage NRW Blitze Wind GFS-Modell
webcam


Kleve - Düffelward SSO more information Kleve - Düffelward SSO


Goch more information Goch


Weitere Templates dieser Seite und andere Webseiten:

Meteotemplate

Awekas - Template

weather34 - Template

Wetter im Erzgebirge


te
World Weather Websites
Bo-Rox Wetter Topsites List
 

METAR-Meldungen aus der Umgebung

   
EDLV - Goch
Aktualisierung: 25-05-2019 16:50
Stark bewölkt  
Stark bewölkt  
   Wind: WNW 9.3 km/h
Wind: WNW 9.3 km/h
Temperatur: 19°C
Taupunkt: 9°C
Luftfeuchte: 52%
Luftdruck: 1017 hPa
Bewölkt: Stark bewölkt
Sichtbarkeit: More than 10 km
Bewölkung: Stark bewölkt 4200 ft
EDLV 251450Z 29005KT 260V330 9999 BKN042 19/09 Q1017
EDLV - Emmerich
Aktualisierung: 25-05-2019 16:50
Stark bewölkt  
Stark bewölkt  
   Wind: WNW 9.3 km/h
Wind: WNW 9.3 km/h
Temperatur: 19°C
Taupunkt: 9°C
Luftfeuchte: 52%
Luftdruck: 1017 hPa
Bewölkt: Stark bewölkt
Sichtbarkeit: More than 10 km
Bewölkung: Stark bewölkt 4200 ft
EDLV 251450Z 29005KT 260V330 9999 BKN042 19/09 Q1017
EHDL - Nijmegen
Aktualisierung: 25-05-2019 16:55
Bewölkt  
Bewölkt  
   Wind: NNW 9.3 km/h
Wind: NNW 9.3 km/h
Temperatur: 18°C
Taupunkt: 7°C
Luftfeuchte: 49%
Luftdruck: 1017 hPa
Bewölkt: Bewölkt
Sichtbarkeit: More than 10 km
Bewölkung: Stark bewölkt 4400 ft,
Bewölkt 4900 ft
EHDL 251455Z AUTO 34005KT 300V050 9999 BKN044 OVC049 18/07 Q1017 BLU
EHDL - Arnhem
Aktualisierung: 25-05-2019 16:55
Bewölkt  
Bewölkt  
   Wind: NNW 9.3 km/h
Wind: NNW 9.3 km/h
Temperatur: 18°C
Taupunkt: 7°C
Luftfeuchte: 49%
Luftdruck: 1017 hPa
Bewölkt: Bewölkt
Sichtbarkeit: More than 10 km
Bewölkung: Stark bewölkt 4400 ft,
Bewölkt 4900 ft
EHDL 251455Z AUTO 34005KT 300V050 9999 BKN044 OVC049 18/07 Q1017 BLU
EDLV - Kalkar
Aktualisierung: 25-05-2019 16:50
Stark bewölkt  
Stark bewölkt  
   Wind: WNW 9.3 km/h
Wind: WNW 9.3 km/h
Temperatur: 19°C
Taupunkt: 9°C
Luftfeuchte: 52%
Luftdruck: 1017 hPa
Bewölkt: Stark bewölkt
Sichtbarkeit: More than 10 km
Bewölkung: Stark bewölkt 4200 ft
EDLV 251450Z 29005KT 260V330 9999 BKN042 19/09 Q1017
 

Script entwickelt von  Saratoga-weather.org Angepasst für das Template von  Weerstation Leuven

Sie finden Wetter-Infos dieser Station auch auf:

UK Metoffice

European Weather Network

WeatherCloud

Weather Underground

Germany Weather Network

AWEKAS

Neuwetter

Wettersektor

Von uns verwendete Ausrüstung:

Wetterstation
Davis Vantage Pro2

Wetterprogramm
Meteobridge

WetterComputer
Computer

Davis Vantage Pro2

Meteobridge

Computer